sensor_id;sensor_type;location;lat;lon;timestamp;temperature;humidity
67641;SHT31;54434;50.096;20.082;2023-04-06T00:01:08;-0.73;67.49
67641;SHT31;54434;50.096;20.082;2023-04-06T00:03:45;-0.77;67.50
67641;SHT31;54434;50.096;20.082;2023-04-06T00:06:21;-0.80;67.53
67641;SHT31;54434;50.096;20.082;2023-04-06T00:08:59;-0.85;67.76
67641;SHT31;54434;50.096;20.082;2023-04-06T00:11:36;-0.91;68.11
67641;SHT31;54434;50.096;20.082;2023-04-06T00:14:13;-0.93;68.36
67641;SHT31;54434;50.096;20.082;2023-04-06T00:16:50;-0.97;68.59
67641;SHT31;54434;50.096;20.082;2023-04-06T00:19:28;-0.99;68.60
67641;SHT31;54434;50.096;20.082;2023-04-06T00:22:04;-1.02;68.70
67641;SHT31;54434;50.096;20.082;2023-04-06T00:24:41;-1.05;68.69
67641;SHT31;54434;50.096;20.082;2023-04-06T00:27:17;-1.07;68.70
67641;SHT31;54434;50.096;20.082;2023-04-06T00:29:54;-1.09;68.85
67641;SHT31;54434;50.096;20.082;2023-04-06T00:32:31;-1.11;69.01
67641;SHT31;54434;50.096;20.082;2023-04-06T00:35:09;-1.13;69.09
67641;SHT31;54434;50.096;20.082;2023-04-06T00:37:47;-1.16;69.10
67641;SHT31;54434;50.096;20.082;2023-04-06T00:40:24;-1.18;69.26
67641;SHT31;54434;50.096;20.082;2023-04-06T00:43:01;-1.18;69.33
67641;SHT31;54434;50.096;20.082;2023-04-06T00:45:39;-1.22;69.42
67641;SHT31;54434;50.096;20.082;2023-04-06T00:48:16;-1.23;69.58
67641;SHT31;54434;50.096;20.082;2023-04-06T00:50:53;-1.26;69.63
67641;SHT31;54434;50.096;20.082;2023-04-06T00:53:30;-1.31;69.82
67641;SHT31;54434;50.096;20.082;2023-04-06T00:56:08;-1.34;70.11
67641;SHT31;54434;50.096;20.082;2023-04-06T00:58:53;-1.37;70.23
67641;SHT31;54434;50.096;20.082;2023-04-06T01:01:30;-1.40;70.43
67641;SHT31;54434;50.096;20.082;2023-04-06T01:04:11;-1.42;70.49
67641;SHT31;54434;50.096;20.082;2023-04-06T01:06:49;-1.44;70.67
67641;SHT31;54434;50.096;20.082;2023-04-06T01:09:30;-1.47;70.98
67641;SHT31;54434;50.096;20.082;2023-04-06T01:12:10;-1.51;71.30
67641;SHT31;54434;50.096;20.082;2023-04-06T01:14:47;-1.52;71.43
67641;SHT31;54434;50.096;20.082;2023-04-06T01:17:24;-1.54;71.52
67641;SHT31;54434;50.096;20.082;2023-04-06T01:20:02;-1.55;71.60
67641;SHT31;54434;50.096;20.082;2023-04-06T01:22:42;-1.57;71.69
67641;SHT31;54434;50.096;20.082;2023-04-06T01:25:20;-1.56;71.65
67641;SHT31;54434;50.096;20.082;2023-04-06T01:28:11;-1.57;71.70
67641;SHT31;54434;50.096;20.082;2023-04-06T01:30:58;-1.58;71.70
67641;SHT31;54434;50.096;20.082;2023-04-06T01:33:48;-1.57;71.70
67641;SHT31;54434;50.096;20.082;2023-04-06T01:36:27;-1.57;71.58
67641;SHT31;54434;50.096;20.082;2023-04-06T01:39:23;-1.58;71.59
67641;SHT31;54434;50.096;20.082;2023-04-06T01:42:00;-1.58;71.59
67641;SHT31;54434;50.096;20.082;2023-04-06T01:44:37;-1.59;71.65
67641;SHT31;54434;50.096;20.082;2023-04-06T01:47:17;-1.61;71.70
67641;SHT31;54434;50.096;20.082;2023-04-06T01:49:54;-1.63;71.77
67641;SHT31;54434;50.096;20.082;2023-04-06T01:52:32;-1.62;71.80
67641;SHT31;54434;50.096;20.082;2023-04-06T01:55:09;-1.63;71.81
67641;SHT31;54434;50.096;20.082;2023-04-06T01:58:08;-1.63;71.80
67641;SHT31;54434;50.096;20.082;2023-04-06T02:00:45;-1.63;71.91
67641;SHT31;54434;50.096;20.082;2023-04-06T02:03:23;-1.65;72.03
67641;SHT31;54434;50.096;20.082;2023-04-06T02:06:06;-1.66;72.09
67641;SHT31;54434;50.096;20.082;2023-04-06T02:08:44;-1.65;72.09
67641;SHT31;54434;50.096;20.082;2023-04-06T02:11:21;-1.66;72.12
67641;SHT31;54434;50.096;20.082;2023-04-06T02:13:59;-1.67;72.20
67641;SHT31;54434;50.096;20.082;2023-04-06T02:16:37;-1.68;72.21
67641;SHT31;54434;50.096;20.082;2023-04-06T02:19:14;-1.68;72.20
67641;SHT31;54434;50.096;20.082;2023-04-06T02:21:51;-1.69;72.16
67641;SHT31;54434;50.096;20.082;2023-04-06T02:24:28;-1.69;72.03
67641;SHT31;54434;50.096;20.082;2023-04-06T02:27:04;-1.71;72.00
67641;SHT31;54434;50.096;20.082;2023-04-06T02:29:42;-1.71;71.99
67641;SHT31;54434;50.096;20.082;2023-04-06T02:32:19;-1.73;72.08
67641;SHT31;54434;50.096;20.082;2023-04-06T02:34:57;-1.74;72.12
67641;SHT31;54434;50.096;20.082;2023-04-06T02:37:34;-1.73;72.06
67641;SHT31;54434;50.096;20.082;2023-04-06T02:40:13;-1.72;72.00
67641;SHT31;54434;50.096;20.082;2023-04-06T02:42:50;-1.74;72.10
67641;SHT31;54434;50.096;20.082;2023-04-06T02:45:32;-1.75;72.19
67641;SHT31;54434;50.096;20.082;2023-04-06T02:48:08;-1.76;72.12
67641;SHT31;54434;50.096;20.082;2023-04-06T02:50:45;-1.77;72.10
67641;SHT31;54434;50.096;20.082;2023-04-06T02:53:22;-1.78;72.10
67641;SHT31;54434;50.096;20.082;2023-04-06T02:55:59;-1.79;72.17
67641;SHT31;54434;50.096;20.082;2023-04-06T02:58:50;-1.79;72.29
67641;SHT31;54434;50.096;20.082;2023-04-06T03:01:28;-1.80;72.34
67641;SHT31;54434;50.096;20.082;2023-04-06T03:04:07;-1.81;72.30
67641;SHT31;54434;50.096;20.082;2023-04-06T03:06:44;-1.80;72.28
67641;SHT31;54434;50.096;20.082;2023-04-06T03:09:28;-1.79;72.25
67641;SHT31;54434;50.096;20.082;2023-04-06T03:12:06;-1.81;72.16
67641;SHT31;54434;50.096;20.082;2023-04-06T03:15:28;-1.80;72.12
67641;SHT31;54434;50.096;20.082;2023-04-06T03:18:14;-1.82;72.17
67641;SHT31;54434;50.096;20.082;2023-04-06T03:20:54;-1.83;72.21
67641;SHT31;54434;50.096;20.082;2023-04-06T03:23:42;-1.82;72.12
67641;SHT31;54434;50.096;20.082;2023-04-06T03:26:22;-1.82;72.07
67641;SHT31;54434;50.096;20.082;2023-04-06T03:28:59;-1.83;71.95
67641;SHT31;54434;50.096;20.082;2023-04-06T03:31:35;-1.82;71.90
67641;SHT31;54434;50.096;20.082;2023-04-06T03:34:47;-1.81;71.81
67641;SHT31;54434;50.096;20.082;2023-04-06T03:37:23;-1.80;71.80
67641;SHT31;54434;50.096;20.082;2023-04-06T03:40:03;-1.80;71.83
67641;SHT31;54434;50.096;20.082;2023-04-06T03:42:42;-1.80;71.88
67641;SHT31;54434;50.096;20.082;2023-04-06T03:45:19;-1.80;71.90
67641;SHT31;54434;50.096;20.082;2023-04-06T03:47:56;-1.78;71.84
67641;SHT31;54434;50.096;20.082;2023-04-06T03:53:10;-1.77;71.84
67641;SHT31;54434;50.096;20.082;2023-04-06T03:55:47;-1.76;71.76
67641;SHT31;54434;50.096;20.082;2023-04-06T03:58:25;-1.75;71.77
67641;SHT31;54434;50.096;20.082;2023-04-06T04:04:28;-1.76;72.05
67641;SHT31;54434;50.096;20.082;2023-04-06T04:07:05;-1.77;72.25
67641;SHT31;54434;50.096;20.082;2023-04-06T04:09:42;-1.76;72.31
67641;SHT31;54434;50.096;20.082;2023-04-06T04:12:19;-1.75;72.50
67641;SHT31;54434;50.096;20.082;2023-04-06T04:14:56;-1.76;72.82
67641;SHT31;54434;50.096;20.082;2023-04-06T04:17:32;-1.76;72.96
67641;SHT31;54434;50.096;20.082;2023-04-06T04:20:11;-1.75;72.99
67641;SHT31;54434;50.096;20.082;2023-04-06T04:22:48;-1.74;72.89
67641;SHT31;54434;50.096;20.082;2023-04-06T04:25:25;-1.71;72.80
67641;SHT31;54434;50.096;20.082;2023-04-06T04:28:02;-1.66;72.70
67641;SHT31;54434;50.096;20.082;2023-04-06T04:30:39;-1.61;72.62
67641;SHT31;54434;50.096;20.082;2023-04-06T04:33:16;-1.56;72.52
67641;SHT31;54434;50.096;20.082;2023-04-06T04:35:53;-1.49;72.51
67641;SHT31;54434;50.096;20.082;2023-04-06T04:38:31;-1.42;72.40
67641;SHT31;54434;50.096;20.082;2023-04-06T04:41:08;-1.34;72.40
67641;SHT31;54434;50.096;20.082;2023-04-06T04:43:46;-1.26;72.38
67641;SHT31;54434;50.096;20.082;2023-04-06T04:46:26;-1.17;72.40
67641;SHT31;54434;50.096;20.082;2023-04-06T04:49:03;-1.10;72.42
67641;SHT31;54434;50.096;20.082;2023-04-06T04:51:40;-1.04;72.45
67641;SHT31;54434;50.096;20.082;2023-04-06T04:54:24;-0.94;72.40
67641;SHT31;54434;50.096;20.082;2023-04-06T04:57:01;-0.87;72.32
67641;SHT31;54434;50.096;20.082;2023-04-06T04:59:44;-0.79;72.28
67641;SHT31;54434;50.096;20.082;2023-04-06T05:02:22;-0.70;72.11
67641;SHT31;54434;50.096;20.082;2023-04-06T05:05:20;-0.60;71.95
67641;SHT31;54434;50.096;20.082;2023-04-06T05:07:58;-0.51;71.77
67641;SHT31;54434;50.096;20.082;2023-04-06T05:10:45;-0.43;71.51
67641;SHT31;54434;50.096;20.082;2023-04-06T05:13:22;-0.31;71.44
67641;SHT31;54434;50.096;20.082;2023-04-06T05:15:59;-0.22;71.18
67641;SHT31;54434;50.096;20.082;2023-04-06T05:18:36;-0.13;70.88
67641;SHT31;54434;50.096;20.082;2023-04-06T05:21:13;-0.05;70.67
67641;SHT31;54434;50.096;20.082;2023-04-06T05:24:40;0.05;70.34
67641;SHT31;54434;50.096;20.082;2023-04-06T05:27:17;0.14;70.27
67641;SHT31;54434;50.096;20.082;2023-04-06T05:29:55;0.23;70.09
67641;SHT31;54434;50.096;20.082;2023-04-06T05:32:32;0.32;69.92
67641;SHT31;54434;50.096;20.082;2023-04-06T05:35:10;0.43;69.70
67641;SHT31;54434;50.096;20.082;2023-04-06T05:37:50;0.49;69.45
67641;SHT31;54434;50.096;20.082;2023-04-06T05:40:29;0.57;69.45
67641;SHT31;54434;50.096;20.082;2023-04-06T05:43:06;0.67;69.10
67641;SHT31;54434;50.096;20.082;2023-04-06T05:45:46;0.76;68.67
67641;SHT31;54434;50.096;20.082;2023-04-06T05:48:23;0.84;68.55
67641;SHT31;54434;50.096;20.082;2023-04-06T05:51:00;0.93;68.54
67641;SHT31;54434;50.096;20.082;2023-04-06T05:53:46;1.02;68.26
67641;SHT31;54434;50.096;20.082;2023-04-06T05:56:22;1.11;68.14
67641;SHT31;54434;50.096;20.082;2023-04-06T05:58:59;1.21;67.81
67641;SHT31;54434;50.096;20.082;2023-04-06T06:01:36;1.32;67.04
67641;SHT31;54434;50.096;20.082;2023-04-06T06:04:14;1.37;66.16
67641;SHT31;54434;50.096;20.082;2023-04-06T06:06:51;1.42;65.78
67641;SHT31;54434;50.096;20.082;2023-04-06T06:09:35;1.47;65.51
67641;SHT31;54434;50.096;20.082;2023-04-06T06:12:25;1.52;65.16
67641;SHT31;54434;50.096;20.082;2023-04-06T06:15:03;1.56;64.80
67641;SHT31;54434;50.096;20.082;2023-04-06T06:17:44;1.60;64.73
67641;SHT31;54434;50.096;20.082;2023-04-06T06:20:21;1.66;64.55
67641;SHT31;54434;50.096;20.082;2023-04-06T06:23:00;1.69;64.10
67641;SHT31;54434;50.096;20.082;2023-04-06T06:25:37;1.69;63.60
67641;SHT31;54434;50.096;20.082;2023-04-06T06:28:14;1.69;62.92
67641;SHT31;54434;50.096;20.082;2023-04-06T06:30:51;1.71;63.01
67641;SHT31;54434;50.096;20.082;2023-04-06T06:33:28;1.76;62.96
67641;SHT31;54434;50.096;20.082;2023-04-06T06:36:05;1.79;62.87
67641;SHT31;54434;50.096;20.082;2023-04-06T06:38:43;1.79;62.72
67641;SHT31;54434;50.096;20.082;2023-04-06T06:41:21;1.79;62.30
67641;SHT31;54434;50.096;20.082;2023-04-06T06:43:59;1.80;62.41
67641;SHT31;54434;50.096;20.082;2023-04-06T06:46:35;1.79;62.00
67641;SHT31;54434;50.096;20.082;2023-04-06T06:49:14;1.82;62.62
67641;SHT31;54434;50.096;20.082;2023-04-06T06:51:51;1.88;62.25
67641;SHT31;54434;50.096;20.082;2023-04-06T06:54:27;1.92;62.07
67641;SHT31;54434;50.096;20.082;2023-04-06T06:57:04;2.01;62.07
67641;SHT31;54434;50.096;20.082;2023-04-06T06:59:41;2.06;61.55
67641;SHT31;54434;50.096;20.082;2023-04-06T07:02:18;2.10;61.33
67641;SHT31;54434;50.096;20.082;2023-04-06T07:04:55;2.12;60.77
67641;SHT31;54434;50.096;20.082;2023-04-06T07:07:38;2.14;60.68
67641;SHT31;54434;50.096;20.082;2023-04-06T07:10:15;2.19;60.65
67641;SHT31;54434;50.096;20.082;2023-04-06T07:12:52;2.27;60.76
67641;SHT31;54434;50.096;20.082;2023-04-06T07:15:29;2.36;60.68
67641;SHT31;54434;50.096;20.082;2023-04-06T07:18:06;2.46;60.53
67641;SHT31;54434;50.096;20.082;2023-04-06T07:20:43;2.55;60.02
67641;SHT31;54434;50.096;20.082;2023-04-06T07:23:21;2.62;59.39
67641;SHT31;54434;50.096;20.082;2023-04-06T07:25:58;2.67;58.93
67641;SHT31;54434;50.096;20.082;2023-04-06T07:28:34;2.67;58.40
67641;SHT31;54434;50.096;20.082;2023-04-06T07:31:12;2.67;57.80
67641;SHT31;54434;50.096;20.082;2023-04-06T07:33:49;2.65;57.47
67641;SHT31;54434;50.096;20.082;2023-04-06T07:36:26;2.68;57.49
67641;SHT31;54434;50.096;20.082;2023-04-06T07:39:03;2.74;57.20
67641;SHT31;54434;50.096;20.082;2023-04-06T07:41:40;2.81;57.45
67641;SHT31;54434;50.096;20.082;2023-04-06T07:44:17;2.91;57.60
67641;SHT31;54434;50.096;20.082;2023-04-06T07:46:54;3.05;57.37
67641;SHT31;54434;50.096;20.082;2023-04-06T07:49:32;3.29;57.92
67641;SHT31;54434;50.096;20.082;2023-04-06T07:52:09;3.49;57.07
67641;SHT31;54434;50.096;20.082;2023-04-06T07:54:46;3.64;55.88
67641;SHT31;54434;50.096;20.082;2023-04-06T07:57:23;3.72;55.34
67641;SHT31;54434;50.096;20.082;2023-04-06T07:59:59;3.84;55.62
67641;SHT31;54434;50.096;20.082;2023-04-06T08:02:43;3.91;54.24
67641;SHT31;54434;50.096;20.082;2023-04-06T08:05:20;3.95;53.98
67641;SHT31;54434;50.096;20.082;2023-04-06T08:07:57;3.99;54.16
67641;SHT31;54434;50.096;20.082;2023-04-06T08:10:33;4.24;54.40
67641;SHT31;54434;50.096;20.082;2023-04-06T08:13:10;4.48;53.75
67641;SHT31;54434;50.096;20.082;2023-04-06T08:15:47;4.57;51.93
67641;SHT31;54434;50.096;20.082;2023-04-06T08:18:25;4.74;52.46
67641;SHT31;54434;50.096;20.082;2023-04-06T08:21:02;5.00;51.60
67641;SHT31;54434;50.096;20.082;2023-04-06T08:23:39;5.16;51.05
67641;SHT31;54434;50.096;20.082;2023-04-06T08:26:19;5.31;50.66
67641;SHT31;54434;50.096;20.082;2023-04-06T08:28:56;5.41;49.98
67641;SHT31;54434;50.096;20.082;2023-04-06T08:31:32;5.47;49.71
67641;SHT31;54434;50.096;20.082;2023-04-06T08:34:10;5.42;48.74
67641;SHT31;54434;50.096;20.082;2023-04-06T08:36:47;5.45;49.54
67641;SHT31;54434;50.096;20.082;2023-04-06T08:39:24;5.50;49.42
67641;SHT31;54434;50.096;20.082;2023-04-06T08:42:03;5.36;48.50
67641;SHT31;54434;50.096;20.082;2023-04-06T08:44:49;5.31;49.67
67641;SHT31;54434;50.096;20.082;2023-04-06T08:47:26;5.24;48.84
67641;SHT31;54434;50.096;20.082;2023-04-06T08:50:03;5.23;49.48
67641;SHT31;54434;50.096;20.082;2023-04-06T08:52:43;5.09;49.86
67641;SHT31;54434;50.096;20.082;2023-04-06T08:55:22;5.04;50.03
67641;SHT31;54434;50.096;20.082;2023-04-06T08:57:59;4.89;50.23
67641;SHT31;54434;50.096;20.082;2023-04-06T09:00:38;4.79;51.74
67641;SHT31;54434;50.096;20.082;2023-04-06T09:03:16;4.84;51.59
67641;SHT31;54434;50.096;20.082;2023-04-06T09:05:55;4.68;51.20
67641;SHT31;54434;50.096;20.082;2023-04-06T09:08:34;4.55;51.02
67641;SHT31;54434;50.096;20.082;2023-04-06T09:11:14;4.45;51.29
67641;SHT31;54434;50.096;20.082;2023-04-06T09:13:52;4.43;51.44
67641;SHT31;54434;50.096;20.082;2023-04-06T09:16:38;4.28;51.54
67641;SHT31;54434;50.096;20.082;2023-04-06T09:19:17;4.18;52.15
67641;SHT31;54434;50.096;20.082;2023-04-06T09:22:04;4.12;52.81
67641;SHT31;54434;50.096;20.082;2023-04-06T09:24:45;4.10;53.25
67641;SHT31;54434;50.096;20.082;2023-04-06T09:27:33;3.98;53.26
67641;SHT31;54434;50.096;20.082;2023-04-06T09:30:13;3.94;53.54
67641;SHT31;54434;50.096;20.082;2023-04-06T09:32:51;3.86;53.94
67641;SHT31;54434;50.096;20.082;2023-04-06T09:35:29;3.79;54.51
67641;SHT31;54434;50.096;20.082;2023-04-06T09:38:12;3.76;55.18
67641;SHT31;54434;50.096;20.082;2023-04-06T09:40:52;3.69;55.64
67641;SHT31;54434;50.096;20.082;2023-04-06T09:43:32;3.67;56.05
67641;SHT31;54434;50.096;20.082;2023-04-06T09:46:09;3.72;55.70
67641;SHT31;54434;50.096;20.082;2023-04-06T09:48:47;3.76;55.71
67641;SHT31;54434;50.096;20.082;2023-04-06T09:51:25;3.72;55.94
67641;SHT31;54434;50.096;20.082;2023-04-06T09:54:10;3.67;56.23
67641;SHT31;54434;50.096;20.082;2023-04-06T09:56:56;3.68;56.68
67641;SHT31;54434;50.096;20.082;2023-04-06T09:59:47;3.72;57.18
67641;SHT31;54434;50.096;20.082;2023-04-06T10:02:33;3.78;57.13
67641;SHT31;54434;50.096;20.082;2023-04-06T10:05:22;3.89;57.56
67641;SHT31;54434;50.096;20.082;2023-04-06T10:08:08;3.95;57.83
67641;SHT31;54434;50.096;20.082;2023-04-06T10:10:47;3.98;58.25
67641;SHT31;54434;50.096;20.082;2023-04-06T10:13:25;3.93;58.65
67641;SHT31;54434;50.096;20.082;2023-04-06T10:16:02;3.93;59.40
67641;SHT31;54434;50.096;20.082;2023-04-06T10:18:41;3.90;59.10
67641;SHT31;54434;50.096;20.082;2023-04-06T10:21:26;3.78;59.51
67641;SHT31;54434;50.096;20.082;2023-04-06T10:24:08;3.80;60.26
67641;SHT31;54434;50.096;20.082;2023-04-06T10:27:00;3.68;60.04
67641;SHT31;54434;50.096;20.082;2023-04-06T10:29:46;3.66;61.48
67641;SHT31;54434;50.096;20.082;2023-04-06T10:32:32;3.68;62.32
67641;SHT31;54434;50.096;20.082;2023-04-06T10:35:12;3.73;62.10
67641;SHT31;54434;50.096;20.082;2023-04-06T10:38:03;3.75;62.32
67641;SHT31;54434;50.096;20.082;2023-04-06T10:40:41;3.69;61.57
67641;SHT31;54434;50.096;20.082;2023-04-06T10:43:21;3.64;61.96
67641;SHT31;54434;50.096;20.082;2023-04-06T10:46:01;3.63;62.79
67641;SHT31;54434;50.096;20.082;2023-04-06T10:48:40;3.64;63.35
67641;SHT31;54434;50.096;20.082;2023-04-06T10:51:18;3.64;64.23
67641;SHT31;54434;50.096;20.082;2023-04-06T10:54:01;3.68;64.48
67641;SHT31;54434;50.096;20.082;2023-04-06T10:56:42;3.71;64.60
67641;SHT31;54434;50.096;20.082;2023-04-06T10:59:21;3.63;64.43
67641;SHT31;54434;50.096;20.082;2023-04-06T11:01:58;3.58;64.94
67641;SHT31;54434;50.096;20.082;2023-04-06T11:04:35;3.55;65.39
67641;SHT31;54434;50.096;20.082;2023-04-06T11:07:12;3.55;65.59
67641;SHT31;54434;50.096;20.082;2023-04-06T11:10:02;3.49;65.72
67641;SHT31;54434;50.096;20.082;2023-04-06T11:12:51;3.45;66.33
67641;SHT31;54434;50.096;20.082;2023-04-06T11:15:35;3.46;66.77
67641;SHT31;54434;50.096;20.082;2023-04-06T11:18:12;3.41;66.78
67641;SHT31;54434;50.096;20.082;2023-04-06T11:20:53;3.33;67.27
67641;SHT31;54434;50.096;20.082;2023-04-06T11:23:30;3.26;67.82
67641;SHT31;54434;50.096;20.082;2023-04-06T11:26:11;3.26;68.25
67641;SHT31;54434;50.096;20.082;2023-04-06T11:28:49;3.21;68.37
67641;SHT31;54434;50.096;20.082;2023-04-06T11:31:28;3.21;69.24
67641;SHT31;54434;50.096;20.082;2023-04-06T11:34:09;3.19;69.52
67641;SHT31;54434;50.096;20.082;2023-04-06T11:36:56;3.16;69.75
67641;SHT31;54434;50.096;20.082;2023-04-06T11:39:41;3.05;70.05
67641;SHT31;54434;50.096;20.082;2023-04-06T11:42:26;3.04;70.16
67641;SHT31;54434;50.096;20.082;2023-04-06T11:45:09;3.05;70.63
67641;SHT31;54434;50.096;20.082;2023-04-06T11:47:57;3.11;71.13
67641;SHT31;54434;50.096;20.082;2023-04-06T11:50:37;3.17;71.40
67641;SHT31;54434;50.096;20.082;2023-04-06T11:53:14;3.15;71.43
67641;SHT31;54434;50.096;20.082;2023-04-06T11:55:51;3.09;71.76
67641;SHT31;54434;50.096;20.082;2023-04-06T11:58:29;3.08;72.23
67641;SHT31;54434;50.096;20.082;2023-04-06T12:01:06;2.96;72.19
67641;SHT31;54434;50.096;20.082;2023-04-06T12:03:43;2.91;72.44
67641;SHT31;54434;50.096;20.082;2023-04-06T12:06:20;2.87;72.71
67641;SHT31;54434;50.096;20.082;2023-04-06T12:08:58;2.85;73.04
67641;SHT31;54434;50.096;20.082;2023-04-06T12:11:34;2.84;73.39
67641;SHT31;54434;50.096;20.082;2023-04-06T12:14:12;2.80;73.86
67641;SHT31;54434;50.096;20.082;2023-04-06T12:16:50;2.78;73.98
67641;SHT31;54434;50.096;20.082;2023-04-06T12:19:27;2.84;74.19
67641;SHT31;54434;50.096;20.082;2023-04-06T12:22:04;2.85;74.11
67641;SHT31;54434;50.096;20.082;2023-04-06T12:24:41;2.80;74.06
67641;SHT31;54434;50.096;20.082;2023-04-06T12:27:18;2.77;73.97
67641;SHT31;54434;50.096;20.082;2023-04-06T12:29:55;2.77;74.00
67641;SHT31;54434;50.096;20.082;2023-04-06T12:32:32;2.77;73.99
67641;SHT31;54434;50.096;20.082;2023-04-06T12:35:10;2.72;74.13
67641;SHT31;54434;50.096;20.082;2023-04-06T12:37:48;2.73;74.47
67641;SHT31;54434;50.096;20.082;2023-04-06T12:40:25;2.71;74.61
67641;SHT31;54434;50.096;20.082;2023-04-06T12:43:02;2.69;74.79
67641;SHT31;54434;50.096;20.082;2023-04-06T12:45:39;2.68;74.72
67641;SHT31;54434;50.096;20.082;2023-04-06T12:48:15;2.73;74.90
67641;SHT31;54434;50.096;20.082;2023-04-06T12:50:57;2.78;74.85
67641;SHT31;54434;50.096;20.082;2023-04-06T12:53:36;2.80;75.12
67641;SHT31;54434;50.096;20.082;2023-04-06T12:56:14;2.84;75.14
67641;SHT31;54434;50.096;20.082;2023-04-06T12:58:53;2.89;75.23
67641;SHT31;54434;50.096;20.082;2023-04-06T13:01:30;2.96;75.43
67641;SHT31;54434;50.096;20.082;2023-04-06T13:04:07;3.00;75.36
67641;SHT31;54434;50.096;20.082;2023-04-06T13:06:44;3.05;75.47
67641;SHT31;54434;50.096;20.082;2023-04-06T13:09:21;3.08;75.53
67641;SHT31;54434;50.096;20.082;2023-04-06T13:11:57;3.09;75.86
67641;SHT31;54434;50.096;20.082;2023-04-06T13:14:35;3.07;75.65
67641;SHT31;54434;50.096;20.082;2023-04-06T13:17:12;3.08;75.58
67641;SHT31;54434;50.096;20.082;2023-04-06T13:19:49;3.11;75.72
67641;SHT31;54434;50.096;20.082;2023-04-06T13:22:26;3.09;75.87
67641;SHT31;54434;50.096;20.082;2023-04-06T13:25:03;3.11;76.08
67641;SHT31;54434;50.096;20.082;2023-04-06T13:27:41;3.09;76.18
67641;SHT31;54434;50.096;20.082;2023-04-06T13:30:21;3.06;76.22
67641;SHT31;54434;50.096;20.082;2023-04-06T13:32:59;3.07;76.26
67641;SHT31;54434;50.096;20.082;2023-04-06T13:35:39;2.99;76.29
67641;SHT31;54434;50.096;20.082;2023-04-06T13:38:19;2.94;76.29
67641;SHT31;54434;50.096;20.082;2023-04-06T13:40:56;2.94;76.34
67641;SHT31;54434;50.096;20.082;2023-04-06T13:43:33;2.92;76.16
67641;SHT31;54434;50.096;20.082;2023-04-06T13:46:10;2.91;76.26
67641;SHT31;54434;50.096;20.082;2023-04-06T13:48:47;2.93;76.44
67641;SHT31;54434;50.096;20.082;2023-04-06T13:51:24;2.94;76.48
67641;SHT31;54434;50.096;20.082;2023-04-06T13:54:01;2.96;76.60
67641;SHT31;54434;50.096;20.082;2023-04-06T13:56:37;2.96;76.65
67641;SHT31;54434;50.096;20.082;2023-04-06T13:59:14;2.98;76.67
67641;SHT31;54434;50.096;20.082;2023-04-06T14:01:51;2.98;76.64
67641;SHT31;54434;50.096;20.082;2023-04-06T14:04:27;3.01;76.81
67641;SHT31;54434;50.096;20.082;2023-04-06T14:07:04;3.06;76.91
67641;SHT31;54434;50.096;20.082;2023-04-06T14:09:41;3.02;76.76
67641;SHT31;54434;50.096;20.082;2023-04-06T14:12:17;2.99;76.49
67641;SHT31;54434;50.096;20.082;2023-04-06T14:14:54;2.98;76.42
67641;SHT31;54434;50.096;20.082;2023-04-06T14:17:30;2.95;76.32
67641;SHT31;54434;50.096;20.082;2023-04-06T14:20:09;2.94;76.42
67641;SHT31;54434;50.096;20.082;2023-04-06T14:22:46;2.96;76.47
67641;SHT31;54434;50.096;20.082;2023-04-06T14:25:24;3.00;76.61
67641;SHT31;54434;50.096;20.082;2023-04-06T14:28:03;2.98;76.51
67641;SHT31;54434;50.096;20.082;2023-04-06T14:30:39;2.92;76.48
67641;SHT31;54434;50.096;20.082;2023-04-06T14:33:16;2.84;76.74
67641;SHT31;54434;50.096;20.082;2023-04-06T14:35:52;2.79;76.90
67641;SHT31;54434;50.096;20.082;2023-04-06T14:38:29;2.77;77.02
67641;SHT31;54434;50.096;20.082;2023-04-06T14:41:06;2.76;77.13
67641;SHT31;54434;50.096;20.082;2023-04-06T14:43:47;2.86;77.47
67641;SHT31;54434;50.096;20.082;2023-04-06T14:46:24;2.84;77.14
67641;SHT31;54434;50.096;20.082;2023-04-06T14:49:01;2.81;77.07
67641;SHT31;54434;50.096;20.082;2023-04-06T14:51:37;2.79;77.14
67641;SHT31;54434;50.096;20.082;2023-04-06T14:54:14;2.76;77.25
67641;SHT31;54434;50.096;20.082;2023-04-06T14:56:50;2.73;77.35
67641;SHT31;54434;50.096;20.082;2023-04-06T14:59:27;2.72;77.25
67641;SHT31;54434;50.096;20.082;2023-04-06T15:02:09;2.74;77.18
67641;SHT31;54434;50.096;20.082;2023-04-06T15:04:47;2.73;77.06
67641;SHT31;54434;50.096;20.082;2023-04-06T15:07:25;2.72;77.23
67641;SHT31;54434;50.096;20.082;2023-04-06T15:10:01;2.72;77.43
67641;SHT31;54434;50.096;20.082;2023-04-06T15:12:42;2.74;77.60
67641;SHT31;54434;50.096;20.082;2023-04-06T15:15:20;2.71;77.74
67641;SHT31;54434;50.096;20.082;2023-04-06T15:17:56;2.68;77.98
67641;SHT31;54434;50.096;20.082;2023-04-06T15:20:34;2.62;78.02
67641;SHT31;54434;50.096;20.082;2023-04-06T15:23:12;2.61;78.00
67641;SHT31;54434;50.096;20.082;2023-04-06T15:25:49;2.58;78.04
67641;SHT31;54434;50.096;20.082;2023-04-06T15:28:26;2.57;78.07
67641;SHT31;54434;50.096;20.082;2023-04-06T15:31:03;2.55;78.10
67641;SHT31;54434;50.096;20.082;2023-04-06T15:33:53;2.49;78.19
67641;SHT31;54434;50.096;20.082;2023-04-06T15:36:30;2.47;78.27
67641;SHT31;54434;50.096;20.082;2023-04-06T15:39:07;2.46;78.31
67641;SHT31;54434;50.096;20.082;2023-04-06T15:41:45;2.41;78.34
67641;SHT31;54434;50.096;20.082;2023-04-06T15:44:21;2.35;78.49
67641;SHT31;54434;50.096;20.082;2023-04-06T15:46:58;2.30;78.68
67641;SHT31;54434;50.096;20.082;2023-04-06T15:49:35;2.27;78.79
67641;SHT31;54434;50.096;20.082;2023-04-06T15:52:11;2.22;78.84
67641;SHT31;54434;50.096;20.082;2023-04-06T15:54:48;2.20;78.88
67641;SHT31;54434;50.096;20.082;2023-04-06T15:57:25;2.16;78.97
67641;SHT31;54434;50.096;20.082;2023-04-06T16:00:02;2.17;79.08
67641;SHT31;54434;50.096;20.082;2023-04-06T16:02:41;2.17;79.07
67641;SHT31;54434;50.096;20.082;2023-04-06T16:05:18;2.17;79.10
67641;SHT31;54434;50.096;20.082;2023-04-06T16:07:56;2.15;79.19
67641;SHT31;54434;50.096;20.082;2023-04-06T16:10:36;2.12;79.29
67641;SHT31;54434;50.096;20.082;2023-04-06T16:13:12;2.11;79.44
67641;SHT31;54434;50.096;20.082;2023-04-06T16:15:51;2.07;79.57
67641;SHT31;54434;50.096;20.082;2023-04-06T16:18:27;2.03;79.68
67641;SHT31;54434;50.096;20.082;2023-04-06T16:21:07;1.98;79.85
67641;SHT31;54434;50.096;20.082;2023-04-06T16:23:48;1.92;79.91
67641;SHT31;54434;50.096;20.082;2023-04-06T16:26:25;1.91;79.90
67641;SHT31;54434;50.096;20.082;2023-04-06T16:29:02;1.87;79.99
67641;SHT31;54434;50.096;20.082;2023-04-06T16:31:38;1.86;80.02
67641;SHT31;54434;50.096;20.082;2023-04-06T16:34:17;1.83;80.09
67641;SHT31;54434;50.096;20.082;2023-04-06T16:36:54;1.82;80.25
67641;SHT31;54434;50.096;20.082;2023-04-06T16:39:31;1.80;80.37
67641;SHT31;54434;50.096;20.082;2023-04-06T16:42:08;1.77;80.46
67641;SHT31;54434;50.096;20.082;2023-04-06T16:44:45;1.77;80.53